Time;durP1;ratioP1;P1;durP2;ratioP2;P2;SDS_P1;SDS_P2;PMS_P1;PMS_P2;Temp;Humidity;BMP_temperature;BMP_pressure;BME280_temperature;BME280_humidity;BME280_pressure;Samples;Min_cycle;Max_cycle;Signal;HPM_P1;HPM_P2
2021/10/08 00:00:17;;;;;;;26.30;14.13;;;;;;;10.92;100.00;103133.16;5071403;28;20052;-32
2021/10/08 00:02:45;;;;;;;45.38;15.07;;;;;;;10.90;100.00;103132.56;5070739;28;20517;-33
2021/10/08 00:05:13;;;;;;;34.50;16.25;;;;;;;10.87;100.00;103130.25;5071287;28;20036;-36
2021/10/08 00:07:42;;;;;;;54.70;16.48;;;;;;;10.85;100.00;103135.22;5071091;28;20493;-35
2021/10/08 00:10:10;;;;;;;60.28;19.10;;;;;;;10.83;100.00;103129.03;5070518;28;20071;-36
2021/10/08 00:12:38;;;;;;;31.52;15.45;;;;;;;10.82;100.00;103125.38;5071032;28;20050;-38
2021/10/08 00:15:07;;;;;;;45.35;17.00;;;;;;;10.86;100.00;103128.53;5070526;28;20493;-33
2021/10/08 00:17:35;;;;;;;82.43;19.60;;;;;;;10.85;100.00;103124.91;5071103;28;20040;-38
2021/10/08 00:20:03;;;;;;;34.70;17.67;;;;;;;10.86;100.00;103122.97;5070933;28;20045;-35
2021/10/08 00:22:30;;;;;;;48.05;17.00;;;;;;;10.85;100.00;103121.25;5071017;28;20048;-38
2021/10/08 00:24:59;;;;;;;50.70;18.90;;;;;;;10.85;100.00;103121.25;5070913;28;20060;-34
2021/10/08 00:27:27;;;;;;;45.47;15.77;;;;;;;10.84;100.00;103123.19;5071024;28;20402;-37
2021/10/08 00:29:55;;;;;;;72.57;17.80;;;;;;;10.83;100.00;103126.25;5070410;28;20053;-34
2021/10/08 00:32:23;;;;;;;45.65;15.63;;;;;;;10.82;100.00;103122.59;5069580;28;20413;-36
2021/10/08 00:34:50;;;;;;;64.28;17.65;;;;;;;10.78;100.00;103129.78;5070759;28;20445;-37
2021/10/08 00:37:19;;;;;;;59.53;17.70;;;;;;;10.75;100.00;103138.66;5070764;28;20044;-36
2021/10/08 00:39:46;;;;;;;45.25;15.85;;;;;;;10.73;100.00;103135.25;5069342;28;20041;-34
2021/10/08 00:42:20;;;;;;;37.47;16.40;;;;;;;10.74;100.00;103138.91;5071084;28;20086;-35
2021/10/08 00:44:48;;;;;;;57.83;18.27;;;;;;;10.69;100.00;103131.25;5068888;28;20052;-37
2021/10/08 00:47:16;;;;;;;50.50;18.83;;;;;;;10.67;100.00;103142.66;5069883;28;20063;-40
2021/10/08 00:49:44;;;;;;;32.13;15.38;;;;;;;10.64;100.00;103145.94;5069390;28;20048;-33
2021/10/08 00:52:12;;;;;;;45.20;16.88;;;;;;;10.63;100.00;103138.66;5070314;28;20120;-33
2021/10/08 00:54:39;;;;;;;32.60;15.48;;;;;;;10.66;100.00;103145.69;5072678;28;20055;-35
2021/10/08 00:57:07;;;;;;;25.45;14.18;;;;;;;10.64;100.00;103148.72;5073082;28;20056;-37
2021/10/08 00:59:37;;;;;;;33.08;15.10;;;;;;;10.67;100.00;103148.25;5074620;28;20079;-35
2021/10/08 01:02:05;;;;;;;59.17;15.90;;;;;;;10.67;100.00;103145.44;5074098;28;20056;-34
2021/10/08 01:04:34;;;;;;;33.50;14.20;;;;;;;10.65;100.00;103139.25;5072940;28;20053;-34
2021/10/08 01:07:02;;;;;;;57.30;16.52;;;;;;;10.63;100.00;103146.19;5073363;28;20171;-34
2021/10/08 01:09:30;;;;;;;32.40;15.10;;;;;;;10.61;100.00;103145.56;5074428;28;20063;-34
2021/10/08 01:11:58;;;;;;;43.20;15.95;;;;;;;10.55;100.00;103144.63;5073696;28;20048;-34
2021/10/08 01:14:27;;;;;;;31.88;13.63;;;;;;;10.53;100.00;103151.53;5073347;28;20074;-36
2021/10/08 01:16:59;;;;;;;56.40;15.23;;;;;;;10.51;100.00;103148.13;5073162;28;20041;-34
2021/10/08 01:19:27;;;;;;;29.27;13.48;;;;;;;10.49;100.00;103147.53;5072654;28;20036;-35
2021/10/08 01:22:00;;;;;;;62.45;16.45;;;;;;;10.49;100.00;103153.09;5074497;28;20090;-34
2021/10/08 01:24:30;;;;;;;37.85;12.68;;;;;;;10.49;100.00;103150.31;5072769;28;20044;-39
2021/10/08 01:27:02;;;;;;;45.65;14.35;;;;;;;10.48;100.00;103146.66;5072579;28;20045;-35
2021/10/08 01:29:30;;;;;;;61.08;16.13;;;;;;;10.47;100.00;103150.56;5074383;28;20051;-34
2021/10/08 01:32:01;;;;;;;67.10;16.40;;;;;;;10.45;100.00;103144.38;5072779;28;20118;-34
2021/10/08 01:34:29;;;;;;;56.85;15.27;;;;;;;10.45;100.00;103143.50;5073766;28;20040;-36
2021/10/08 01:36:59;;;;;;;55.00;14.52;;;;;;;10.41;100.00;103151.50;5072206;28;20048;-34
2021/10/08 01:39:28;;;;;;;46.97;13.00;;;;;;;10.41;100.00;103153.47;5072483;28;20052;-32
2021/10/08 01:41:56;;;;;;;33.63;13.13;;;;;;;10.37;100.00;103146.69;5072462;28;20460;-35
2021/10/08 01:44:25;;;;;;;65.90;13.43;;;;;;;10.35;100.00;103155.28;5072896;28;20405;-34
2021/10/08 01:46:54;;;;;;;36.47;13.15;;;;;;;10.34;100.00;103157.25;5071788;28;20048;-35
2021/10/08 01:49:28;;;;;;;50.28;13.35;;;;;;;10.30;100.00;103147.66;5072586;28;20050;-32
2021/10/08 01:51:58;;;;;;;60.60;13.57;;;;;;;10.29;100.00;103148.72;5072031;28;20144;-33
2021/10/08 01:54:32;;;;;;;45.95;12.55;;;;;;;10.28;100.00;103155.41;5072359;28;20534;-34
2021/10/08 01:57:01;;;;;;;40.08;11.35;;;;;;;10.28;100.00;103155.41;5073619;28;20123;-34
2021/10/08 01:59:29;;;;;;;42.88;12.57;;;;;;;10.29;100.00;103157.09;5072723;28;20398;-36
2021/10/08 02:01:58;;;;;;;28.88;9.93;;;;;;;10.30;100.00;103152.38;5071263;28;20139;-35
2021/10/08 02:04:26;;;;;;;42.05;12.27;;;;;;;10.31;100.00;103162.44;5072399;28;20068;-34
2021/10/08 02:06:54;;;;;;;56.05;13.68;;;;;;;10.26;100.00;103153.94;5072085;28;20135;-35
2021/10/08 02:09:24;;;;;;;57.22;12.70;;;;;;;10.24;100.00;103158.91;5071810;28;20534;-33
2021/10/08 02:11:53;;;;;;;57.30;13.10;;;;;;;10.18;100.00;103155.13;5073085;28;20048;-36
2021/10/08 02:14:21;;;;;;;34.28;11.82;;;;;;;10.18;100.00;103154.28;5071767;28;20041;-34
2021/10/08 02:16:52;;;;;;;25.60;10.57;;;;;;;10.18;100.00;103155.13;5072337;28;20048;-34
2021/10/08 02:19:20;;;;;;;33.85;11.15;;;;;;;10.17;100.00;103158.16;5073354;28;20056;-34
2021/10/08 02:21:52;;;;;;;28.38;11.02;;;;;;;10.19;100.00;103153.22;5071463;28;20047;-36
2021/10/08 02:24:21;;;;;;;19.85;9.88;;;;;;;10.19;100.00;103156.84;5071837;28;20516;-34
2021/10/08 02:26:50;;;;;;;13.77;8.13;;;;;;;10.22;100.00;103164.72;5071821;28;20498;-34
2021/10/08 02:29:27;;;;;;;20.77;9.75;;;;;;;10.25;100.00;103163.41;5067806;28;20151;-34
2021/10/08 02:31:57;;;;;;;26.13;10.60;;;;;;;10.27;100.00;103158.44;5071901;28;20052;-37
2021/10/08 02:34:27;;;;;;;26.73;10.18;;;;;;;10.25;100.00;103161.47;5071680;28;20052;-39
2021/10/08 02:36:55;;;;;;;24.17;10.07;;;;;;;10.24;100.00;103159.75;5072443;28;20051;-34
2021/10/08 02:39:24;;;;;;;31.00;10.10;;;;;;;10.24;100.00;103167.28;5071437;28;20052;-33
2021/10/08 02:41:51;;;;;;;16.52;9.25;;;;;;;10.23;100.00;103168.38;5071931;28;20052;-35
2021/10/08 02:44:20;;;;;;;27.63;8.68;;;;;;;10.22;100.00;103167.53;5069856;28;20044;-33
2021/10/08 02:46:52;;;;;;;42.08;10.23;;;;;;;10.20;100.00;103166.91;5071744;28;20048;-34
2021/10/08 02:49:22;;;;;;;75.97;12.32;;;;;;;10.18;100.00;103174.66;5071076;28;20094;-34
2021/10/08 02:51:50;;;;;;;39.00;10.35;;;;;;;10.17;100.00;103183.28;5072262;28;20059;-35
2021/10/08 02:54:19;;;;;;;26.27;8.63;;;;;;;10.12;100.00;103171.97;5071087;28;20051;-33
2021/10/08 02:56:47;;;;;;;43.70;9.95;;;;;;;10.10;100.00;103172.22;5071041;28;20567;-33
2021/10/08 02:59:15;;;;;;;31.45;10.30;;;;;;;10.08;100.00;103165.16;5072405;28;20139;-34
2021/10/08 03:01:44;;;;;;;24.77;9.13;;;;;;;10.04;100.00;103170.38;5071370;28;20496;-35
2021/10/08 03:04:15;;;;;;;26.95;8.43;;;;;;;10.01;100.00;103168.06;5070304;28;20086;-33
2021/10/08 03:06:43;;;;;;;15.38;7.35;;;;;;;9.98;100.00;103172.19;5071224;28;20089;-37
2021/10/08 03:09:12;;;;;;;30.52;8.63;;;;;;;9.93;100.00;103169.25;5070891;28;20076;-37
2021/10/08 03:11:41;;;;;;;15.32;8.15;;;;;;;9.88;100.00;103174.69;5070518;28;20137;-36
2021/10/08 03:14:10;;;;;;;28.40;8.75;;;;;;;9.84;100.00;103184.63;5070824;28;20048;-40
2021/10/08 03:16:38;;;;;;;23.77;9.05;;;;;;;9.81;100.00;103178.66;5070223;28;20489;-35
2021/10/08 03:19:06;;;;;;;51.83;10.07;;;;;;;9.80;100.00;103175.03;5070122;28;20041;-35
2021/10/08 03:21:38;;;;;;;47.47;10.27;;;;;;;9.77;100.00;103181.09;5072078;28;20079;-34
2021/10/08 03:24:06;;;;;;;19.33;8.32;;;;;;;9.75;100.00;103177.69;5070629;28;20106;-33
2021/10/08 03:26:34;;;;;;;61.95;11.45;;;;;;;9.73;100.00;103179.88;5069849;28;20049;-34
2021/10/08 03:29:02;;;;;;;33.03;9.18;;;;;;;9.73;100.00;103174.28;5072074;28;20036;-33
2021/10/08 03:31:32;;;;;;;39.15;9.60;;;;;;;9.75;100.00;103174.91;5070411;28;20048;-33
2021/10/08 03:34:02;;;;;;;21.40;8.43;;;;;;;9.72;100.00;103175.38;5054026;28;20049;-33
2021/10/08 03:36:37;;;;;;;20.48;7.35;;;;;;;9.73;100.00;103176.22;5070619;28;20134;-33
2021/10/08 03:39:07;;;;;;;18.63;6.72;;;;;;;9.72;100.00;103180.09;5071347;28;20137;-33
2021/10/08 03:41:35;;;;;;;34.45;7.95;;;;;;;9.71;100.00;103176.47;5070258;28;20053;-34
2021/10/08 03:44:04;;;;;;;27.58;7.18;;;;;;;9.73;100.00;103179.88;5071751;28;20048;-34
2021/10/08 03:46:37;;;;;;;12.82;5.93;;;;;;;9.75;100.00;103182.41;5067681;28;20415;-36
2021/10/08 03:49:15;;;;;;;23.58;7.45;;;;;;;9.75;100.00;103180.47;5071879;28;20068;-33
2021/10/08 03:51:45;;;;;;;7.25;4.97;;;;;;;9.76;100.00;103176.63;5068232;28;20077;-37
2021/10/08 03:54:16;;;;;;;39.78;7.80;;;;;;;9.76;100.00;103176.63;5069774;28;20048;-34
2021/10/08 03:56:45;;;;;;;16.02;6.20;;;;;;;9.73;100.00;103174.28;5070548;28;20048;-35
2021/10/08 03:59:13;;;;;;;30.58;8.02;;;;;;;9.73;100.00;103176.22;5071814;28;20049;-32
2021/10/08 04:01:45;;;;;;;13.77;6.78;;;;;;;9.74;100.00;103176.00;5069308;28;20056;-35
2021/10/08 04:04:13;;;;;;;7.03;5.05;;;;;;;9.75;100.00;103183.28;5070198;28;20254;-35
2021/10/08 04:06:42;;;;;;;10.65;5.75;;;;;;;9.77;100.00;103183.88;5069920;28;20464;-33
2021/10/08 04:09:10;;;;;;;6.85;4.18;;;;;;;9.79;100.00;103184.47;5069727;28;20056;-34
2021/10/08 04:11:43;;;;;;;9.43;6.28;;;;;;;9.83;100.00;103188.50;5069576;28;20058;-35
2021/10/08 04:14:11;;;;;;;5.28;3.90;;;;;;;9.86;100.00;103185.25;5069620;28;20040;-34
2021/10/08 04:16:40;;;;;;;16.17;6.18;;;;;;;9.93;100.00;103187.94;5069518;28;20889;-34
2021/10/08 04:19:08;;;;;;;8.05;4.93;;;;;;;9.94;100.00;103182.13;5071239;28;20036;-34
2021/10/08 04:21:38;;;;;;;9.60;5.63;;;;;;;9.93;100.00;103187.94;5068711;28;20055;-36
2021/10/08 04:24:06;;;;;;;10.43;6.82;;;;;;;9.92;100.00;103189.03;5069991;28;20429;-34
2021/10/08 04:26:34;;;;;;;10.73;6.53;;;;;;;9.91;100.00;103192.91;5070803;28;20047;-34
2021/10/08 04:29:03;;;;;;;11.80;6.75;;;;;;;9.92;100.00;103189.03;5068105;28;20049;-35
2021/10/08 04:31:35;;;;;;;11.82;5.97;;;;;;;9.94;100.00;103195.22;5069599;28;20425;-34
2021/10/08 04:34:03;;;;;;;18.00;5.30;;;;;;;9.90;100.00;103192.03;5070506;28;20051;-33
2021/10/08 04:36:32;;;;;;;8.27;4.85;;;;;;;9.86;100.00;103196.38;5067319;28;20123;-35
2021/10/08 04:39:00;;;;;;;32.53;5.63;;;;;;;9.83;100.00;103196.00;5067129;28;20052;-35
2021/10/08 04:41:28;;;;;;;10.98;5.32;;;;;;;9.81;100.00;103199.03;5068054;28;20079;-33
2021/10/08 04:43:57;;;;;;;9.23;5.32;;;;;;;9.81;100.00;103195.38;5067254;28;20052;-35
2021/10/08 04:46:26;;;;;;;5.35;4.18;;;;;;;9.81;100.00;103203.75;5052487;28;20086;-35
2021/10/08 04:48:54;;;;;;;12.38;6.03;;;;;;;9.81;100.00;103201.81;5068669;28;20048;-35
2021/10/08 04:51:23;;;;;;;5.82;4.03;;;;;;;9.84;100.00;103203.28;5068770;28;20054;-34
2021/10/08 04:53:51;;;;;;;23.17;5.75;;;;;;;9.84;100.00;103204.13;5069334;28;20048;-35
2021/10/08 04:56:19;;;;;;;20.92;7.38;;;;;;;9.84;100.00;103197.72;5068875;28;20040;-34
2021/10/08 04:58:47;;;;;;;51.47;7.47;;;;;;;9.80;100.00;103199.25;5068148;28;20047;-36
2021/10/08 05:01:15;;;;;;;30.40;5.93;;;;;;;9.72;100.00;103200.47;5069437;28;20056;-33
2021/10/08 05:03:45;;;;;;;8.30;4.75;;;;;;;9.68;100.00;103196.44;5068572;28;20037;-33
2021/10/08 05:06:13;;;;;;;12.82;5.35;;;;;;;9.67;100.00;103191.97;5070960;28;20090;-35
2021/10/08 05:08:46;;;;;;;24.55;6.30;;;;;;;9.68;100.00;103196.44;5068984;28;20098;-33
2021/10/08 05:11:16;;;;;;;19.00;5.80;;;;;;;9.65;100.00;103196.91;5068563;28;20060;-34
2021/10/08 05:13:44;;;;;;;9.85;4.40;;;;;;;9.63;100.00;103202.72;5068916;28;20048;-34
2021/10/08 05:16:12;;;;;;;8.85;4.20;;;;;;;9.63;100.00;103204.66;5069473;28;20068;-36
2021/10/08 05:18:40;;;;;;;35.42;7.40;;;;;;;9.62;100.00;103211.31;5068217;28;20117;-33
2021/10/08 05:21:12;;;;;;;6.47;4.45;;;;;;;9.59;100.00;103212.63;5069329;28;20051;-34
2021/10/08 05:23:42;;;;;;;13.30;5.00;;;;;;;9.57;100.00;103208.41;5069076;28;20048;-38
2021/10/08 05:26:10;;;;;;;8.15;4.55;;;;;;;9.54;100.00;103215.31;5068575;28;20075;-36
2021/10/08 05:28:38;;;;;;;27.70;7.25;;;;;;;9.50;100.00;103208.50;5068769;28;20048;-34
2021/10/08 05:31:06;;;;;;;14.32;4.88;;;;;;;9.51;100.00;103203.75;5069104;28;20058;-34
2021/10/08 05:33:34;;;;;;;20.00;5.72;;;;;;;9.52;100.00;103209.09;5069917;28;20052;-34
2021/10/08 05:36:03;;;;;;;16.50;6.05;;;;;;;9.54;100.00;103215.31;5068856;28;20040;-34
2021/10/08 05:38:32;;;;;;;11.55;4.60;;;;;;;9.51;100.00;103209.34;5068295;28;20068;-33
2021/10/08 05:41:00;;;;;;;32.88;6.43;;;;;;;9.50;100.00;103214.06;5072577;28;20056;-35
2021/10/08 05:43:28;;;;;;;9.10;5.07;;;;;;;9.47;100.00;103220.09;5074043;28;20234;-33
2021/10/08 05:45:59;;;;;;;53.53;7.18;;;;;;;9.46;100.00;103220.34;5071892;28;20076;-34
2021/10/08 05:48:29;;;;;;;11.40;5.13;;;;;;;9.40;100.00;103224.91;5056760;28;20040;-32
2021/10/08 05:50:57;;;;;;;19.45;4.93;;;;;;;9.35;100.00;103221.97;5072992;28;20057;-35
2021/10/08 05:53:25;;;;;;;11.65;5.60;;;;;;;9.32;100.00;103222.44;5070845;28;20116;-36
2021/10/08 05:55:54;;;;;;;10.35;5.32;;;;;;;9.30;100.00;103231.03;5071834;28;20502;-32
2021/10/08 05:58:21;;;;;;;10.25;5.85;;;;;;;9.29;100.00;103225.69;5071845;28;20049;-36
2021/10/08 06:00:49;;;;;;;17.67;5.78;;;;;;;9.28;100.00;103230.41;5070049;28;20063;-34
2021/10/08 06:03:17;;;;;;;7.55;4.13;;;;;;;9.28;100.00;103230.41;5072126;28;20053;-35
2021/10/08 06:05:46;;;;;;;11.70;4.90;;;;;;;9.28;100.00;103226.78;5071670;28;20047;-36
2021/10/08 06:08:14;;;;;;;8.27;4.68;;;;;;;9.27;100.00;103230.66;5071918;28;20076;-33
2021/10/08 06:10:46;;;;;;;37.30;7.13;;;;;;;9.25;100.00;103224.44;5070625;28;20063;-34
2021/10/08 06:13:17;;;;;;;35.08;6.35;;;;;;;9.23;100.00;103227.47;5071254;28;20060;-32
2021/10/08 06:15:46;;;;;;;8.40;4.50;;;;;;;9.20;100.00;103235.44;5070468;28;20064;-34
2021/10/08 06:18:13;;;;;;;6.47;3.85;;;;;;;9.21;100.00;103232.41;5071420;28;20053;-36
2021/10/08 06:20:46;;;;;;;18.13;4.97;;;;;;;9.24;100.00;103236.69;5070755;28;20044;-32
2021/10/08 06:23:17;;;;;;;10.82;4.93;;;;;;;9.24;100.00;103243.09;5072850;28;20079;-36
2021/10/08 06:25:45;;;;;;;17.95;5.40;;;;;;;9.23;100.00;103241.41;5071180;28;20135;-37
2021/10/08 06:28:13;;;;;;;8.05;4.32;;;;;;;9.25;100.00;103244.81;5070469;28;20056;-36
2021/10/08 06:30:42;;;;;;;10.15;4.80;;;;;;;9.25;100.00;103250.38;5070137;28;20060;-35
2021/10/08 06:33:10;;;;;;;11.82;5.65;;;;;;;9.23;100.00;103243.34;5068291;28;20441;-33
2021/10/08 06:35:41;;;;;;;6.70;4.82;;;;;;;9.24;100.00;103237.53;5070426;28;20412;-37
2021/10/08 06:38:10;;;;;;;7.15;4.10;;;;;;;9.28;100.00;103247.13;5072066;28;20122;-35
2021/10/08 06:40:40;;;;;;;16.10;5.20;;;;;;;9.32;100.00;103251.16;5070763;28;20045;-37
2021/10/08 06:43:11;;;;;;;7.25;4.68;;;;;;;9.35;100.00;103244.28;5070061;28;20103;-36
2021/10/08 06:45:50;;;;;;;7.60;5.00;;;;;;;9.41;100.00;103248.03;5070938;28;20050;-35
2021/10/08 06:48:19;;;;;;;13.15;5.60;;;;;;;9.47;100.00;103255.47;5070486;28;20056;-37
2021/10/08 06:50:48;;;;;;;18.60;5.95;;;;;;;9.48;100.00;103254.41;5069177;28;20044;-32
2021/10/08 06:53:18;;;;;;;37.67;8.32;;;;;;;9.48;100.00;103254.41;5070439;28;20067;-32
2021/10/08 06:55:48;;;;;;;44.97;7.70;;;;;;;9.46;100.00;103257.41;5069826;28;20518;-34
2021/10/08 06:58:22;;;;;;;18.80;5.90;;;;;;;9.45;100.00;103266.84;5066815;28;20056;-34
2021/10/08 07:00:54;;;;;;;9.43;6.07;;;;;;;9.46;100.00;103273.28;5070699;28;20053;-32
2021/10/08 07:03:23;;;;;;;;;;;;;;;9.42;100.00;103272.03;5069965;28;20044;-32
2021/10/08 07:05:50;;;;;;;15.68;5.85;;;;;;;9.43;100.00;103273.75;5070283;28;19931;-32
2021/10/08 07:08:19;;;;;;;12.55;5.57;;;;;;;9.50;100.00;103280.97;5070039;28;20051;-35
2021/10/08 07:10:46;;;;;;;12.48;5.35;;;;;;;9.56;100.00;103276.38;5071044;28;20139;-35
2021/10/08 07:13:14;;;;;;;14.45;6.07;;;;;;;9.59;100.00;103273.97;5070220;28;20044;-34
2021/10/08 07:15:42;;;;;;;19.35;6.65;;;;;;;9.60;100.00;103280.38;5071689;28;20127;-33
2021/10/08 07:18:15;;;;;;;10.20;6.10;;;;;;;9.68;100.00;103280.09;5070441;28;20047;-34
2021/10/08 07:20:45;;;;;;;6.38;5.07;;;;;;;9.74;100.00;103287.53;5071528;28;20056;-34
2021/10/08 07:23:13;;;;;;;9.48;5.72;;;;;;;9.81;100.00;103298.56;5071177;28;20040;-36
2021/10/08 07:25:41;;;;;;;10.27;5.38;;;;;;;9.87;100.00;103308.78;5070913;28;20052;-35
2021/10/08 07:28:09;;;;;;;16.75;6.50;;;;;;;9.89;100.00;103301.03;5071039;28;20047;-35
2021/10/08 07:30:37;;;;;;;21.02;7.43;;;;;;;9.92;100.00;103309.81;5071333;28;20052;-33
2021/10/08 07:33:04;;;;;;;6.43;4.72;;;;;;;9.98;100.00;103306.06;5070044;28;20398;-36
2021/10/08 07:35:33;;;;;;;6.25;5.07;;;;;;;10.07;100.00;103305.72;5071239;28;20050;-40
2021/10/08 07:38:01;;;;;;;22.33;7.03;;;;;;;10.10;100.00;103303.34;5070132;28;20055;-36
2021/10/08 07:40:30;;;;;;;19.33;6.65;;;;;;;10.12;100.00;103305.88;5071199;28;20044;-37
2021/10/08 07:42:58;;;;;;;15.20;6.28;;;;;;;10.12;100.00;103305.88;5070820;28;20067;-36
2021/10/08 07:45:25;;;;;;;12.57;6.00;;;;;;;10.12;100.00;103314.25;5070148;28;20497;-36
2021/10/08 07:47:53;;;;;;;21.67;5.65;;;;;;;10.13;100.00;103318.75;5070682;28;20493;-35
2021/10/08 07:50:21;;;;;;;5.65;4.13;;;;;;;10.14;100.00;103312.09;5069360;28;20120;-35
2021/10/08 07:52:50;;;;;;;13.38;5.90;;;;;;;10.19;100.00;103315.06;5070143;28;20044;-41
2021/10/08 07:55:18;;;;;;;6.05;4.60;;;;;;;10.24;100.00;103317.97;5070644;28;20056;-36
2021/10/08 07:57:47;;;;;;;7.25;4.38;;;;;;;10.31;100.00;103315.94;5057365;28;20481;-38
2021/10/08 08:00:15;;;;;;;9.80;5.25;;;;;;;10.38;100.00;103313.91;5070242;28;20506;-35
2021/10/08 08:02:44;;;;;;;11.13;5.32;;;;;;;10.41;100.00;103324.56;5071167;28;20040;-36
2021/10/08 08:05:12;;;;;;;9.43;5.35;;;;;;;10.49;100.00;103323.38;5071256;28;20048;-36
2021/10/08 08:07:40;;;;;;;11.10;5.13;;;;;;;10.57;100.00;103321.13;5070607;28;20051;-35
2021/10/08 08:10:12;;;;;;;9.73;6.50;;;;;;;10.68;100.00;103325.00;5069529;28;20532;-36
2021/10/08 08:12:40;;;;;;;;;;;;;;;10.72;100.00;103328.19;5070927;28;20050;-38
2021/10/08 08:15:10;;;;;;;6.78;4.63;;;;;;;10.78;100.00;103328.09;5070053;28;19920;-38
2021/10/08 08:17:38;;;;;;;7.22;5.15;;;;;;;10.92;100.00;103337.09;5071194;28;20048;-34
2021/10/08 08:20:07;;;;;;;6.05;4.68;;;;;;;10.99;100.00;103329.44;5070764;28;20072;-35
2021/10/08 08:22:35;;;;;;;16.88;7.32;;;;;;;11.10;100.00;103328.59;5071208;28;20079;-37
2021/10/08 08:25:04;;;;;;;7.80;5.85;;;;;;;11.23;100.00;103325.53;5070498;28;20052;-34
2021/10/08 08:27:33;;;;;;;9.27;5.18;;;;;;;11.37;100.00;103334.56;5070483;28;20128;-37
2021/10/08 08:30:02;;;;;;;9.30;6.10;;;;;;;11.45;100.00;103331.38;5070649;28;20059;-33
2021/10/08 08:32:31;;;;;;;10.80;6.40;;;;;;;11.54;100.00;103334.66;5070975;28;20059;-35
2021/10/08 08:34:59;;;;;;;9.50;5.75;;;;;;;11.59;100.00;103323.59;5070133;28;20048;-36
2021/10/08 08:37:27;;;;;;;12.93;6.10;;;;;;;11.72;100.00;103324.16;5070909;28;20383;-34
2021/10/08 08:39:55;;;;;;;10.82;8.02;;;;;;;11.82;100.00;103334.72;5070453;28;20052;-36
2021/10/08 08:42:23;;;;;;;8.10;6.15;;;;;;;11.92;100.00;103334.97;5068199;28;20550;-37
2021/10/08 08:44:52;;;;;;;10.18;7.57;;;;;;;12.07;100.00;103329.66;5070871;28;20036;-36
2021/10/08 08:47:21;;;;;;;14.88;7.00;;;;;;;12.18;100.00;103332.69;5070510;28;20052;-35
2021/10/08 08:49:50;;;;;;;23.02;7.88;;;;;;;12.22;100.00;103331.91;5068898;28;20055;-37
2021/10/08 08:52:19;;;;;;;8.75;7.00;;;;;;;12.24;100.00;103338.13;5070527;28;20040;-37
2021/10/08 08:54:47;;;;;;;6.60;5.22;;;;;;;12.27;100.00;103342.38;5070948;28;20135;-34
2021/10/08 08:57:20;;;;;;;14.55;6.53;;;;;;;12.36;100.00;103335.28;5066024;28;20169;-36
2021/10/08 09:00:05;;;;;;;8.90;5.63;;;;;;;12.48;100.00;103340.81;5070740;28;20079;-36
2021/10/08 09:02:35;;;;;;;9.13;6.55;;;;;;;12.54;100.00;103331.41;5066621;28;20087;-35
2021/10/08 09:05:03;;;;;;;7.65;5.45;;;;;;;12.59;100.00;103326.72;5055051;28;20047;-35
2021/10/08 09:07:33;;;;;;;9.32;5.78;;;;;;;12.62;100.00;103339.38;5070554;28;20516;-35
2021/10/08 09:10:13;;;;;;;6.93;5.40;;;;;;;12.73;100.00;103339.31;5070047;28;20044;-37
2021/10/08 09:12:42;;;;;;;10.18;7.53;;;;;;;12.86;100.00;103340.09;5070566;28;20048;-36
2021/10/08 09:15:13;;;;;;;8.38;6.25;;;;;;;12.94;100.00;103345.28;5073114;28;20045;-39
2021/10/08 09:17:41;;;;;;;8.40;6.35;;;;;;;13.03;100.00;103340.94;5073960;28;20500;-39
2021/10/08 09:20:11;;;;;;;7.90;5.68;;;;;;;13.09;100.00;103339.91;5074493;28;20049;-35
2021/10/08 09:22:53;;;;;;;6.25;4.68;;;;;;;13.12;100.00;103342.22;5074382;28;20067;-40
2021/10/08 09:25:32;;;;;;;9.63;6.38;;;;;;;13.15;100.00;103338.06;5073553;28;20060;-35
2021/10/08 09:28:02;;;;;;;9.18;6.40;;;;;;;13.23;100.00;103330.06;5071481;28;20052;-38
2021/10/08 09:30:40;;;;;;;10.13;7.90;;;;;;;13.25;100.00;103332.63;5073627;28;20060;-36
2021/10/08 09:33:08;;;;;;;9.55;7.30;;;;;;;13.24;100.00;103336.53;5071171;28;20069;-35
2021/10/08 09:35:38;;;;;;;9.93;7.45;;;;;;;13.23;100.00;103335.69;5074121;28;20049;-33
2021/10/08 09:38:10;;;;;;;11.18;8.13;;;;;;;13.21;100.00;103332.28;5072231;28;20045;-33
2021/10/08 09:40:43;;;;;;;13.18;7.55;;;;;;;13.22;100.00;103338.75;5074140;28;20053;-36
2021/10/08 09:43:13;;;;;;;10.25;7.20;;;;;;;13.33;100.00;103326.59;5073960;28;20454;-35
2021/10/08 09:45:50;;;;;;;12.38;8.50;;;;;;;13.48;100.00;103325.97;5073454;28;20045;-33
2021/10/08 09:48:20;;;;;;;12.98;8.93;;;;;;;13.52;100.00;103322.38;5073677;28;20460;-35
2021/10/08 09:51:00;;;;;;;13.77;9.00;;;;;;;13.52;100.00;103328.00;5073691;28;20067;-35
2021/10/08 09:53:28;;;;;;;11.75;8.45;;;;;;;13.55;100.00;103329.44;5072877;28;20048;-34
2021/10/08 09:55:57;;;;;;;11.98;8.40;;;;;;;13.71;100.00;103336.94;5073879;28;20056;-36
2021/10/08 09:58:25;;;;;;;11.38;8.55;;;;;;;13.89;100.00;103331.00;5073202;28;20044;-34
2021/10/08 10:01:00;;;;;;;17.90;9.68;;;;;;;14.35;100.00;103340.00;5073158;28;20545;-37
2021/10/08 10:03:30;;;;;;;13.52;9.05;;;;;;;14.74;100.00;103335.94;5073565;28;20040;-34
2021/10/08 10:06:00;;;;;;;8.68;6.88;;;;;;;14.98;100.00;103335.56;5073029;28;20294;-37
2021/10/08 10:08:28;;;;;;;13.32;9.75;;;;;;;15.06;99.29;103338.72;5073191;28;20040;-36
2021/10/08 10:10:58;;;;;;;13.18;9.48;;;;;;;15.30;99.92;103336.38;5073625;28;20189;-35
2021/10/08 10:13:31;;;;;;;13.65;9.35;;;;;;;15.39;97.27;103342.31;5072654;28;20041;-39
2021/10/08 10:16:00;;;;;;;15.40;9.98;;;;;;;15.38;97.13;103347.13;5073565;28;20412;-41
2021/10/08 10:18:29;;;;;;;13.73;9.90;;;;;;;15.43;96.55;103338.69;5073139;28;20076;-41
2021/10/08 10:20:57;;;;;;;12.68;9.57;;;;;;;15.60;95.81;103343.31;5072872;28;20044;-38
2021/10/08 10:23:25;;;;;;;14.57;10.02;;;;;;;15.82;95.75;103339.22;5073050;28;20097;-37
2021/10/08 10:25:53;;;;;;;14.27;11.18;;;;;;;16.18;94.87;103348.69;5071670;28;20055;-38
2021/10/08 10:28:21;;;;;;;17.75;12.70;;;;;;;16.53;92.28;103342.28;5072375;28;20044;-37
2021/10/08 10:30:51;;;;;;;15.23;10.05;;;;;;;16.83;90.82;103343.47;5072985;28;20070;-40
2021/10/08 10:33:26;;;;;;;15.40;11.32;;;;;;;17.12;90.15;103346.59;5073006;28;20044;-37
2021/10/08 10:35:56;;;;;;;16.58;12.30;;;;;;;17.40;87.98;103343.16;5072499;28;20531;-37
2021/10/08 10:38:33;;;;;;;17.23;12.88;;;;;;;17.60;86.33;103338.59;5072755;28;20478;-36
2021/10/08 10:41:23;;;;;;;17.45;12.23;;;;;;;17.58;85.26;103347.38;5072412;28;20044;-37
2021/10/08 10:43:56;;;;;;;14.15;10.38;;;;;;;17.47;84.36;103343.72;5072883;28;20048;-36
2021/10/08 10:46:34;;;;;;;14.93;10.88;;;;;;;17.55;85.79;103345.13;5072609;28;20109;-39
2021/10/08 10:49:45;;;;;;;14.65;10.73;;;;;;;17.55;83.77;103348.78;5072235;28;20485;-38
2021/10/08 10:52:18;;;;;;;17.63;10.85;;;;;;;17.50;83.85;103343.13;5072636;28;20057;-40
2021/10/08 10:55:11;;;;;;;12.45;9.68;;;;;;;17.55;82.76;103347.94;5072379;28;20048;-36
2021/10/08 10:57:51;;;;;;;18.10;12.63;;;;;;;17.51;83.18;103342.00;5063279;28;20040;-36
2021/10/08 11:00:25;;;;;;;13.88;10.93;;;;;;;17.62;83.50;103347.63;5072228;28;20049;-34
2021/10/08 11:03:08;;;;;;;14.85;10.70;;;;;;;17.60;82.90;103335.75;5072291;28;20421;-41
2021/10/08 11:05:39;;;;;;;18.92;13.98;;;;;;;17.67;82.27;103334.38;5072067;28;20454;-35
2021/10/08 11:08:16;;;;;;;18.30;13.15;;;;;;;17.74;81.46;103334.06;5072850;28;20044;-38
2021/10/08 11:11:07;;;;;;;22.52;15.30;;;;;;;17.96;81.42;103339.34;5071299;28;20053;-38
2021/10/08 11:13:36;;;;;;;19.35;14.30;;;;;;;18.17;79.53;103336.16;5072265;28;20076;-38
2021/10/08 11:16:06;;;;;;;17.08;12.25;;;;;;;18.34;78.67;103330.13;5071140;28;20071;-40
2021/10/08 11:18:39;;;;;;;15.52;10.65;;;;;;;18.35;78.09;103331.81;5072500;28;20051;-36
2021/10/08 11:21:10;;;;;;;19.42;14.35;;;;;;;18.42;77.98;103329.47;5071951;28;20055;-36
2021/10/08 11:23:39;;;;;;;16.73;12.82;;;;;;;18.50;76.87;103323.22;5071892;28;20056;-36